createdAt,value
2019-04-25T00:02:21.665Z,9.33
2019-04-25T00:04:52.701Z,6.10
2019-04-25T00:07:23.339Z,9.43
2019-04-25T00:09:55.827Z,10.55
2019-04-25T00:12:26.791Z,9.10
2019-04-25T00:14:59.028Z,10.48
2019-04-25T00:17:31.581Z,13.00
2019-04-25T00:20:03.520Z,14.13
2019-04-25T00:22:46.961Z,13.15
2019-04-25T00:25:28.742Z,10.78
2019-04-25T00:27:59.643Z,10.95
2019-04-25T00:30:31.986Z,16.42
2019-04-25T00:33:02.690Z,9.03
2019-04-25T00:35:34.907Z,13.05
2019-04-25T00:38:07.085Z,10.53
2019-04-25T00:40:38.032Z,11.90
2019-04-25T00:43:09.076Z,16.37
2019-04-25T00:45:39.592Z,6.90
2019-04-25T00:48:12.200Z,14.30
2019-04-25T00:50:43.639Z,11.55
2019-04-25T00:53:15.046Z,14.85
2019-04-25T00:55:46.475Z,10.43
2019-04-25T00:58:43.098Z,13.13
2019-04-25T01:01:32.087Z,12.28
2019-04-25T01:04:02.881Z,12.00
2019-04-25T01:06:33.572Z,12.63
2019-04-25T01:09:05.868Z,13.38
2019-04-25T01:11:36.733Z,12.10
2019-04-25T01:14:07.317Z,10.30
2019-04-25T01:16:38.088Z,15.00
2019-04-25T01:19:08.668Z,11.78
2019-04-25T01:21:39.216Z,14.63
2019-04-25T01:24:10.267Z,13.95
2019-04-25T01:26:40.891Z,19.95
2019-04-25T01:29:11.635Z,14.75
2019-04-25T01:31:43.429Z,15.38
2019-04-25T01:34:16.115Z,15.93
2019-04-25T01:36:57.710Z,12.00
2019-04-25T01:39:38.642Z,14.90
2019-04-25T01:42:31.324Z,17.00
2019-04-25T01:45:03.958Z,16.37
2019-04-25T01:47:34.760Z,15.53
2019-04-25T01:50:06.431Z,18.77
2019-04-25T01:52:37.471Z,19.48
2019-04-25T01:55:08.607Z,19.82
2019-04-25T01:57:39.448Z,21.27
2019-04-25T02:00:13.775Z,25.68
2019-04-25T02:02:44.704Z,20.15
2019-04-25T02:05:15.700Z,24.55
2019-04-25T02:07:46.286Z,19.37
2019-04-25T02:10:18.332Z,21.70
2019-04-25T02:12:55.207Z,20.45
2019-04-25T02:15:29.765Z,22.45
2019-04-25T02:18:00.562Z,19.48
2019-04-25T02:20:31.459Z,21.85
2019-04-25T02:23:02.080Z,21.17
2019-04-25T02:25:33.305Z,23.15
2019-04-25T02:28:05.681Z,15.85
2019-04-25T02:30:36.357Z,26.60
2019-04-25T02:33:09.264Z,24.27
2019-04-25T02:35:42.864Z,27.75
2019-04-25T02:38:11.820Z,26.42
2019-04-25T02:40:45.206Z,20.80
2019-04-25T02:43:14.918Z,18.05
2019-04-25T02:46:15.196Z,20.35
2019-04-25T02:49:07.704Z,21.15
2019-04-25T02:51:49.864Z,18.00
2019-04-25T02:54:20.372Z,22.37
2019-04-25T02:56:50.965Z,20.97
2019-04-25T02:59:21.446Z,23.18
2019-04-25T03:01:54.155Z,17.40
2019-04-25T03:04:24.999Z,23.92
2019-04-25T03:06:57.141Z,18.02
2019-04-25T03:09:27.596Z,18.60
2019-04-25T03:11:58.754Z,14.50
2019-04-25T03:14:30.678Z,23.73
2019-04-25T03:17:04.272Z,22.87
2019-04-25T03:19:55.983Z,20.48
2019-04-25T03:22:28.721Z,26.45
2019-04-25T03:25:00.275Z,24.12
2019-04-25T03:27:32.189Z,24.87
2019-04-25T03:30:04.415Z,32.88
2019-04-25T03:32:35.699Z,30.17
2019-04-25T03:35:07.161Z,27.22
2019-04-25T03:37:38.077Z,25.10
2019-04-25T03:40:09.627Z,21.33
2019-04-25T03:42:40.353Z,27.48
2019-04-25T03:45:11.487Z,30.45
2019-04-25T03:47:43.199Z,20.75
2019-04-25T03:50:14.081Z,27.95
2019-04-25T03:52:44.584Z,22.80
2019-04-25T03:55:15.334Z,22.82
2019-04-25T03:57:45.928Z,24.82
2019-04-25T04:00:16.504Z,16.90
2019-04-25T04:02:46.989Z,22.20
2019-04-25T04:05:17.619Z,24.00
2019-04-25T04:07:48.220Z,33.08
2019-04-25T04:10:21.102Z,23.95
2019-04-25T04:12:51.192Z,24.15
2019-04-25T04:15:23.182Z,26.10
2019-04-25T04:18:20.536Z,29.00
2019-04-25T04:21:09.720Z,24.98
2019-04-25T04:23:57.232Z,23.12
2019-04-25T04:26:29.235Z,20.30
2019-04-25T04:28:59.919Z,30.52
2019-04-25T04:31:30.759Z,23.75
2019-04-25T04:34:01.502Z,29.18
2019-04-25T04:36:33.744Z,25.65
2019-04-25T04:39:05.868Z,25.68
2019-04-25T04:41:36.934Z,30.88
2019-04-25T04:44:26.436Z,24.72
2019-04-25T04:46:57.066Z,24.20
2019-04-25T04:49:27.660Z,29.72
2019-04-25T04:51:58.672Z,35.38
2019-04-25T04:54:29.306Z,29.72
2019-04-25T04:56:59.852Z,22.93
2019-04-25T04:59:30.360Z,27.30
2019-04-25T05:02:28.946Z,26.70
2019-04-25T05:05:30.555Z,28.85
2019-04-25T05:08:08.044Z,34.78
2019-04-25T05:10:38.711Z,31.77
2019-04-25T05:13:09.280Z,33.25
2019-04-25T05:15:40.458Z,27.67
2019-04-25T05:18:11.524Z,28.17
2019-04-25T05:20:44.049Z,25.50
2019-04-25T05:23:15.975Z,24.55
2019-04-25T05:25:46.784Z,22.65
2019-04-25T05:28:18.527Z,32.53
2019-04-25T05:30:58.949Z,25.57
2019-04-25T05:33:29.470Z,29.35
2019-04-25T05:35:59.942Z,26.60
2019-04-25T05:38:30.408Z,32.55
2019-04-25T05:41:10.540Z,25.30
2019-04-25T05:43:41.034Z,22.17
2019-04-25T05:46:13.171Z,19.73
2019-04-25T05:48:43.877Z,29.60
2019-04-25T05:51:15.876Z,29.98
2019-04-25T05:53:47.164Z,27.48
2019-04-25T05:56:18.109Z,26.27
2019-04-25T05:58:48.705Z,29.70
2019-04-25T06:01:19.303Z,23.30
2019-04-25T06:03:49.860Z,21.75
2019-04-25T06:06:21.091Z,36.23
2019-04-25T06:08:58.026Z,34.35
2019-04-25T06:11:43.705Z,37.85
2019-04-25T06:14:15.746Z,26.52
2019-04-25T06:16:46.490Z,31.70
2019-04-25T06:19:35.183Z,33.60
2019-04-25T06:22:08.781Z,33.73
2019-04-25T06:24:47.181Z,26.20
2019-04-25T06:27:27.051Z,31.37
2019-04-25T06:30:04.340Z,24.57
2019-04-25T06:35:07.490Z,26.23
2019-04-25T06:37:38.321Z,30.85
2019-04-25T06:40:09.942Z,22.73
2019-04-25T06:42:40.554Z,34.18
2019-04-25T06:45:37.062Z,30.80
2019-04-25T06:48:26.007Z,31.55
2019-04-25T06:50:57.763Z,25.55
2019-04-25T06:53:28.431Z,27.90
2019-04-25T06:55:59.000Z,28.27
2019-04-25T06:58:30.122Z,27.62
2019-04-25T07:01:01.174Z,26.27
2019-04-25T07:03:31.858Z,23.67
2019-04-25T07:06:03.271Z,28.07
2019-04-25T07:08:35.367Z,24.57
2019-04-25T07:11:07.135Z,23.77
2019-04-25T07:13:38.831Z,24.05
2019-04-25T07:16:09.518Z,20.52
2019-04-25T07:18:40.123Z,23.00
2019-04-25T07:21:10.809Z,23.80
2019-04-25T07:23:43.233Z,25.45
2019-04-25T07:26:22.292Z,18.05
2019-04-25T07:29:14.981Z,27.70
2019-04-25T07:32:03.909Z,38.58
2019-04-25T07:34:35.162Z,30.88
2019-04-25T07:37:06.687Z,20.90
2019-04-25T07:39:37.237Z,27.50
2019-04-25T07:42:08.054Z,22.75
2019-04-25T07:44:49.831Z,19.05
2019-04-25T07:47:10.734Z,20.90
2019-04-25T07:49:41.355Z,16.73
2019-04-25T07:52:13.560Z,21.70
2019-04-25T07:54:44.167Z,17.37
2019-04-25T07:57:14.776Z,18.25
2019-04-25T07:59:45.321Z,12.88
2019-04-25T08:02:15.885Z,14.98
2019-04-25T08:04:47.410Z,15.28
2019-04-25T08:07:17.977Z,11.93
2019-04-25T08:09:48.847Z,14.10
2019-04-25T08:12:19.365Z,13.85
2019-04-25T08:14:58.839Z,17.92
2019-04-25T08:17:47.301Z,10.00
2019-04-25T08:20:19.949Z,9.53
2019-04-25T08:22:57.086Z,11.48
2019-04-25T08:25:23.515Z,12.15
2019-04-25T08:27:55.217Z,17.27
2019-04-25T08:30:25.855Z,14.78
2019-04-25T08:32:56.611Z,10.15
2019-04-25T08:35:27.152Z,8.68
2019-04-25T08:37:57.810Z,12.18
2019-04-25T08:40:31.646Z,17.30
2019-04-25T08:43:04.463Z,9.63
2019-04-25T08:45:35.789Z,8.98
2019-04-25T08:48:07.575Z,11.63
2019-04-25T08:50:47.439Z,13.60
2019-04-25T08:53:17.985Z,16.10
2019-04-25T08:55:59.818Z,9.58
2019-04-25T08:59:01.435Z,13.22
2019-04-25T09:01:37.900Z,14.18
2019-04-25T09:04:15.330Z,13.08
2019-04-25T09:06:46.569Z,14.98
2019-04-25T09:09:17.434Z,13.38
2019-04-25T09:11:48.467Z,10.03
2019-04-25T09:14:19.424Z,13.13
2019-04-25T09:16:50.434Z,16.07
2019-04-25T09:19:21.186Z,14.25
2019-04-25T09:21:53.351Z,15.40
2019-04-25T09:24:24.698Z,12.43
2019-04-25T09:26:56.737Z,17.92
2019-04-25T09:29:27.738Z,20.55
2019-04-25T09:31:58.229Z,11.50
2019-04-25T09:34:28.803Z,15.88
2019-04-25T09:36:59.480Z,15.50
2019-04-25T09:39:37.520Z,11.25
2019-04-25T09:42:08.302Z,14.47
2019-04-25T09:44:48.488Z,7.87
2019-04-25T09:47:19.190Z,11.60
2019-04-25T09:49:50.504Z,9.83
2019-04-25T09:52:24.338Z,8.58
2019-04-25T09:55:03.383Z,8.85
2019-04-25T09:57:53.255Z,7.92
2019-04-25T10:00:30.035Z,8.50
2019-04-25T10:03:00.811Z,8.20
2019-04-25T10:05:31.482Z,7.65
2019-04-25T10:08:03.372Z,8.38
2019-04-25T10:10:34.336Z,7.37
2019-04-25T10:13:06.574Z,6.87
2019-04-25T10:16:09.108Z,5.87
2019-04-25T10:18:41.234Z,3.27
2019-04-25T10:21:14.301Z,5.05
2019-04-25T10:23:46.598Z,8.70
2019-04-25T10:26:21.383Z,5.42
2019-04-25T10:28:51.968Z,6.60
2019-04-25T10:31:23.768Z,3.27
2019-04-25T10:33:54.607Z,5.75
2019-04-25T10:36:25.416Z,6.95
2019-04-25T10:39:07.525Z,5.20
2019-04-25T10:41:28.843Z,5.33
2019-04-25T10:43:59.551Z,6.25
2019-04-25T10:46:30.535Z,3.52
2019-04-25T10:49:01.537Z,5.75
2019-04-25T10:51:32.143Z,4.60
2019-04-25T10:54:04.129Z,7.90
2019-04-25T10:56:34.833Z,7.20
2019-04-25T10:59:05.413Z,8.93
2019-04-25T11:01:36.450Z,8.73
2019-04-25T11:04:22.767Z,12.93
2019-04-25T11:06:55.195Z,10.05
2019-04-25T11:09:27.072Z,9.93
2019-04-25T11:11:57.568Z,10.28
2019-04-25T11:14:31.197Z,9.28
2019-04-25T11:17:02.164Z,9.05
2019-04-25T11:19:34.058Z,10.60
2019-04-25T11:22:06.513Z,11.53
2019-04-25T11:24:37.208Z,7.72
2019-04-25T11:27:07.952Z,9.10
2019-04-25T11:29:38.452Z,9.30
2019-04-25T11:32:10.433Z,10.65
2019-04-25T11:34:41.079Z,16.60
2019-04-25T11:37:11.990Z,13.80
2019-04-25T11:40:04.464Z,17.65
2019-04-25T11:42:36.056Z,22.98
2019-04-25T11:45:07.796Z,19.92
2019-04-25T11:47:50.532Z,23.02
2019-04-25T11:50:21.154Z,21.42
2019-04-25T11:52:52.551Z,25.12
2019-04-25T11:55:23.992Z,25.17
2019-04-25T11:57:55.607Z,21.35
2019-04-25T12:00:29.072Z,27.35
2019-04-25T12:02:59.883Z,24.63
2019-04-25T12:05:30.828Z,28.73
2019-04-25T12:08:03.958Z,16.20
2019-04-25T12:10:35.397Z,16.02
2019-04-25T12:13:07.084Z,17.75
2019-04-25T12:15:37.921Z,12.55
2019-04-25T12:18:08.771Z,19.67
2019-04-25T12:20:39.893Z,14.30
2019-04-25T12:23:10.824Z,14.95
2019-04-25T12:25:41.439Z,20.00
2019-04-25T12:28:14.047Z,16.52
2019-04-25T12:30:45.822Z,14.23
2019-04-25T12:33:20.979Z,12.10
2019-04-25T12:35:50.236Z,16.32
2019-04-25T12:38:20.880Z,14.25
2019-04-25T12:40:52.175Z,15.32
2019-04-25T12:43:25.135Z,17.52
2019-04-25T12:46:14.587Z,19.05
2019-04-25T12:48:45.907Z,17.35
2019-04-25T12:51:16.802Z,15.13
2019-04-25T12:53:48.001Z,14.07
2019-04-25T12:56:20.356Z,15.75
2019-04-25T12:58:51.499Z,14.33
2019-04-25T13:01:24.697Z,19.48
2019-04-25T13:03:56.528Z,16.23
2019-04-25T13:06:26.960Z,18.62
2019-04-25T13:08:57.517Z,19.17
2019-04-25T13:11:28.042Z,22.25
2019-04-25T13:13:58.686Z,25.23
2019-04-25T13:16:29.506Z,27.52
2019-04-25T13:19:12.660Z,26.65
2019-04-25T13:21:33.449Z,20.52
2019-04-25T13:24:05.247Z,22.37
2019-04-25T13:26:41.156Z,22.80
2019-04-25T13:29:25.843Z,20.68
2019-04-25T13:32:09.327Z,23.10
2019-04-25T13:34:44.859Z,18.75
2019-04-25T13:37:16.478Z,14.60
2019-04-25T13:39:47.102Z,15.28
2019-04-25T13:42:17.828Z,15.85
2019-04-25T13:44:48.306Z,16.20
2019-04-25T13:47:19.152Z,11.50
2019-04-25T13:49:49.748Z,16.12
2019-04-25T13:52:20.306Z,10.72
2019-04-25T13:54:50.894Z,12.30
2019-04-25T13:57:21.645Z,10.78
2019-04-25T13:59:54.015Z,15.78
2019-04-25T14:02:24.669Z,12.35
2019-04-25T14:04:55.391Z,17.95
2019-04-25T14:07:25.896Z,15.48
2019-04-25T14:09:56.724Z,15.98
2019-04-25T14:12:28.914Z,17.37
2019-04-25T14:14:59.517Z,14.45
2019-04-25T14:17:55.047Z,11.88
2019-04-25T14:20:56.682Z,10.20
2019-04-25T14:23:27.998Z,12.50
2019-04-25T14:25:58.636Z,16.62
2019-04-25T14:28:31.549Z,11.88
2019-04-25T14:31:02.221Z,14.43
2019-04-25T14:33:33.695Z,12.50
2019-04-25T14:36:05.347Z,11.75
2019-04-25T14:38:36.745Z,8.48
2019-04-25T14:41:08.946Z,8.95
2019-04-25T14:43:39.607Z,10.13
2019-04-25T14:46:10.146Z,9.38
2019-04-25T14:48:41.034Z,8.35
2019-04-25T14:51:11.529Z,9.40
2019-04-25T14:53:43.082Z,10.35
2019-04-25T14:56:37.164Z,12.85
2019-04-25T14:59:07.683Z,9.50
2019-04-25T15:01:44.827Z,7.85
2019-04-25T15:04:10.940Z,9.18
2019-04-25T15:06:41.604Z,7.53
2019-04-25T15:09:12.150Z,7.75
2019-04-25T15:11:42.832Z,5.33
2019-04-25T15:14:13.311Z,4.53
2019-04-25T15:16:43.837Z,4.33
2019-04-25T15:19:14.809Z,3.83
2019-04-25T15:21:45.629Z,6.45
2019-04-25T15:24:16.317Z,2.22
2019-04-25T15:26:46.814Z,2.65
2019-04-25T15:29:17.316Z,2.62
2019-04-25T15:31:55.767Z,2.98
2019-04-25T15:34:20.200Z,3.92
2019-04-25T15:37:01.946Z,1.70
2019-04-25T15:39:44.699Z,2.98
2019-04-25T15:42:40.412Z,4.22
2019-04-25T15:45:36.503Z,4.15
2019-04-25T15:48:08.334Z,5.70
2019-04-25T15:50:39.259Z,5.12
2019-04-25T15:53:09.788Z,2.35
2019-04-25T15:55:40.780Z,2.90
2019-04-25T15:58:11.642Z,3.85
2019-04-25T16:00:42.128Z,2.42
2019-04-25T16:03:13.535Z,2.30
2019-04-25T16:05:44.153Z,6.20
2019-04-25T16:08:14.681Z,6.08
2019-04-25T16:10:45.151Z,6.10
2019-04-25T16:13:15.693Z,9.75
2019-04-25T16:15:46.290Z,6.78
2019-04-25T16:18:16.949Z,7.83
2019-04-25T16:20:47.533Z,9.85
2019-04-25T16:23:18.862Z,11.57
2019-04-25T16:25:49.431Z,13.85
2019-04-25T16:28:20.165Z,10.30
2019-04-25T16:30:50.644Z,7.83
2019-04-25T16:33:21.143Z,1.75
2019-04-25T16:35:51.685Z,3.02
2019-04-25T16:38:22.316Z,2.05
2019-04-25T16:40:52.929Z,3.83
2019-04-25T16:43:26.873Z,2.17
2019-04-25T16:45:57.449Z,6.60
2019-04-25T16:48:28.926Z,2.30
2019-04-25T16:51:00.229Z,1.85
2019-04-25T16:53:31.419Z,2.72
2019-04-25T16:56:02.987Z,1.92
2019-04-25T16:58:33.959Z,1.90
2019-04-25T17:01:13.096Z,2.25
2019-04-25T17:03:44.858Z,1.90
2019-04-25T17:06:15.648Z,3.55
2019-04-25T17:08:46.378Z,2.83
2019-04-25T17:11:17.164Z,4.20
2019-04-25T17:13:53.904Z,5.37
2019-04-25T17:16:51.826Z,6.12
2019-04-25T17:19:42.204Z,4.87
2019-04-25T17:22:12.896Z,7.37
2019-04-25T17:24:43.522Z,6.70
2019-04-25T17:27:15.697Z,3.65
2019-04-25T17:29:46.259Z,7.62
2019-04-25T17:32:25.203Z,6.72
2019-04-25T17:35:03.088Z,6.50
2019-04-25T17:40:33.770Z,6.12
2019-04-25T17:43:10.782Z,4.80
2019-04-25T17:45:37.156Z,5.10
2019-04-25T17:48:07.717Z,7.55
2019-04-25T17:50:38.270Z,5.72
2019-04-25T17:53:09.227Z,5.00
2019-04-25T17:55:39.845Z,5.00
2019-04-25T17:58:10.374Z,5.42
2019-04-25T18:00:42.570Z,6.25
2019-04-25T18:03:13.637Z,7.67
2019-04-25T18:05:44.442Z,6.10
2019-04-25T18:08:15.123Z,7.55
2019-04-25T18:10:46.275Z,5.70
2019-04-25T18:13:17.849Z,7.40
2019-04-25T18:16:13.175Z,8.18
2019-04-25T18:18:53.325Z,7.45
2019-04-25T18:21:23.952Z,8.03
2019-04-25T18:24:22.822Z,10.23
2019-04-25T18:27:15.041Z,11.65
2019-04-25T18:29:46.316Z,13.68
2019-04-25T18:32:16.870Z,13.53
2019-04-25T18:35:11.188Z,8.55
2019-04-25T18:38:15.628Z,12.55
2019-04-25T18:41:02.454Z,9.55
2019-04-25T18:43:37.819Z,14.38
2019-04-25T18:46:14.317Z,14.10
2019-04-25T18:48:45.002Z,14.50
2019-04-25T18:51:15.479Z,15.00
2019-04-25T18:54:07.668Z,11.78
2019-04-25T18:56:43.255Z,9.55
2019-04-25T18:59:35.660Z,12.95
2019-04-25T19:02:25.646Z,10.55
2019-04-25T19:05:13.878Z,15.03
2019-04-25T19:07:45.280Z,10.25
2019-04-25T19:10:16.433Z,11.10
2019-04-25T19:12:47.336Z,12.33
2019-04-25T19:15:18.237Z,11.57
2019-04-25T19:17:48.801Z,16.23
2019-04-25T19:20:19.263Z,18.85
2019-04-25T19:22:49.998Z,2.27
2019-04-25T19:25:20.621Z,1.98
2019-04-25T19:27:51.104Z,2.55
2019-04-25T19:30:21.615Z,2.70
2019-04-25T19:32:52.153Z,3.62
2019-04-25T19:35:22.744Z,2.50
2019-04-25T19:37:54.869Z,7.78
2019-04-25T19:40:44.284Z,8.85
2019-04-25T19:43:19.824Z,9.68
2019-04-25T19:45:51.170Z,24.85
2019-04-25T19:48:21.699Z,15.50
2019-04-25T19:50:52.812Z,11.80
2019-04-25T19:53:23.452Z,10.38
2019-04-25T19:55:54.038Z,11.53
2019-04-25T19:58:24.495Z,11.68
2019-04-25T20:00:55.057Z,11.08
2019-04-25T20:03:49.202Z,13.45
2019-04-25T20:06:43.964Z,13.88
2019-04-25T20:09:33.366Z,12.25
2019-04-25T20:12:04.217Z,11.83
2019-04-25T20:14:34.784Z,8.60
2019-04-25T20:17:06.337Z,14.68
2019-04-25T20:19:36.906Z,10.20
2019-04-25T20:22:07.621Z,7.22
2019-04-25T20:24:38.268Z,8.90
2019-04-25T20:27:09.096Z,7.97
2019-04-25T20:29:39.624Z,6.85
2019-04-25T20:32:10.143Z,6.10
2019-04-25T20:34:40.689Z,6.85
2019-04-25T20:37:11.178Z,6.25
2019-04-25T20:39:41.690Z,6.47
2019-04-25T20:42:12.209Z,6.87
2019-04-25T20:44:43.746Z,6.60
2019-04-25T20:47:14.306Z,4.97
2019-04-25T20:49:44.802Z,6.95
2019-04-25T20:52:16.292Z,6.90
2019-04-25T20:54:47.562Z,7.65
2019-04-25T20:57:18.557Z,8.10
2019-04-25T20:59:49.328Z,8.05
2019-04-25T21:02:19.943Z,6.83
2019-04-25T21:04:50.528Z,7.37
2019-04-25T21:07:21.050Z,6.90
2019-04-25T21:09:51.549Z,7.25
2019-04-25T21:12:22.105Z,7.05
2019-04-25T21:15:15.467Z,8.08
2019-04-25T21:18:07.965Z,7.65
2019-04-25T21:20:38.538Z,9.65
2019-04-25T21:23:09.063Z,5.12
2019-04-25T21:25:39.661Z,4.05
2019-04-25T21:28:10.218Z,10.25
2019-04-25T21:30:40.837Z,8.50
2019-04-25T21:33:11.383Z,6.00
2019-04-25T21:35:42.093Z,6.33
2019-04-25T21:38:15.215Z,6.72
2019-04-25T21:41:07.213Z,8.50
2019-04-25T21:43:41.774Z,6.08
2019-04-25T21:46:12.651Z,10.05
2019-04-25T21:48:43.425Z,8.05
2019-04-25T21:51:32.486Z,5.85
2019-04-25T21:54:04.545Z,9.05
2019-04-25T21:56:35.263Z,7.55
2019-04-25T21:59:05.783Z,7.22
2019-04-25T22:01:39.721Z,9.48
2019-04-25T22:04:10.356Z,6.67
2019-04-25T22:06:41.230Z,8.33
2019-04-25T22:09:17.633Z,9.60
2019-04-25T22:11:48.546Z,7.12
2019-04-25T22:14:19.583Z,10.30
2019-04-25T22:16:50.443Z,8.33
2019-04-25T22:19:21.278Z,9.80
2019-04-25T22:21:52.139Z,9.25
2019-04-25T22:24:23.121Z,10.13
2019-04-25T22:26:56.438Z,9.28
2019-04-25T22:29:28.240Z,9.80
2019-04-25T22:32:18.587Z,10.00
2019-04-25T22:34:58.260Z,11.63
2019-04-25T22:37:29.071Z,9.08
2019-04-25T22:40:01.014Z,13.28
2019-04-25T22:42:31.851Z,9.08
2019-04-25T22:45:03.781Z,11.00
2019-04-25T22:47:34.870Z,10.93
2019-04-25T22:50:06.481Z,7.87
2019-04-25T22:52:37.436Z,8.98
2019-04-25T22:55:08.256Z,11.95
2019-04-25T22:57:39.112Z,12.73
2019-04-25T23:00:12.190Z,8.18
2019-04-25T23:02:53.918Z,8.93
2019-04-25T23:05:53.073Z,10.08
2019-04-25T23:08:26.923Z,10.05
2019-04-25T23:10:57.595Z,10.80
2019-04-25T23:13:28.246Z,9.13
2019-04-25T23:15:59.323Z,9.13
2019-04-25T23:18:30.350Z,8.78
2019-04-25T23:21:01.010Z,8.85
2019-04-25T23:23:32.404Z,8.00
2019-04-25T23:26:14.658Z,9.08
2019-04-25T23:28:45.586Z,7.60
2019-04-25T23:31:23.102Z,11.40
2019-04-25T23:33:54.670Z,7.47
2019-04-25T23:36:25.349Z,6.62
2019-04-25T23:38:56.144Z,8.30
2019-04-25T23:41:26.762Z,7.67
2019-04-25T23:43:57.257Z,9.98
2019-04-25T23:46:27.978Z,7.25
2019-04-25T23:48:58.503Z,9.63
2019-04-25T23:51:28.934Z,8.53
2019-04-25T23:53:59.741Z,9.55
2019-04-25T23:56:30.260Z,6.67
2019-04-25T23:59:01.008Z,8.05
